createdAt,value
2017-05-31T00:02:12.564Z,53.80
2017-05-31T00:04:40.859Z,53.70
2017-05-31T00:07:09.179Z,53.90
2017-05-31T00:09:37.491Z,54.30
2017-05-31T00:12:05.790Z,54.70
2017-05-31T00:14:34.113Z,55.10
2017-05-31T00:17:02.404Z,55.70
2017-05-31T00:19:30.731Z,56.30
2017-05-31T00:21:59.151Z,56.30
2017-05-31T00:24:27.454Z,58.00
2017-05-31T00:26:55.770Z,57.30
2017-05-31T00:29:24.076Z,57.80
2017-05-31T00:31:52.404Z,57.80
2017-05-31T00:34:20.707Z,57.80
2017-05-31T00:36:49.008Z,57.70
2017-05-31T00:39:17.322Z,57.50
2017-05-31T00:41:45.619Z,57.30
2017-05-31T00:44:13.962Z,57.30
2017-05-31T00:46:42.271Z,57.30
2017-05-31T00:49:10.574Z,57.30
2017-05-31T00:51:38.893Z,57.30
2017-05-31T00:54:07.190Z,57.30
2017-05-31T00:56:35.530Z,58.00
2017-05-31T00:59:03.827Z,57.60
2017-05-31T01:01:32.129Z,58.20
2017-05-31T01:04:00.451Z,58.20
2017-05-31T01:06:28.750Z,58.80
2017-05-31T01:08:57.074Z,59.20
2017-05-31T01:11:25.379Z,59.60
2017-05-31T01:13:53.701Z,60.50
2017-05-31T01:16:22.007Z,60.70
2017-05-31T01:18:50.318Z,61.10
2017-05-31T01:21:18.641Z,61.30
2017-05-31T01:23:46.946Z,62.40
2017-05-31T01:26:15.265Z,62.60
2017-05-31T01:28:43.580Z,63.00
2017-05-31T01:31:11.879Z,62.90
2017-05-31T01:33:40.191Z,62.70
2017-05-31T01:36:08.490Z,63.20
2017-05-31T01:38:36.826Z,62.60
2017-05-31T01:41:05.157Z,62.50
2017-05-31T01:43:33.458Z,62.80
2017-05-31T01:46:01.780Z,62.90
2017-05-31T01:48:30.087Z,63.60
2017-05-31T01:50:58.413Z,64.80
2017-05-31T01:53:26.715Z,65.10
2017-05-31T01:55:55.020Z,65.00
2017-05-31T01:58:23.346Z,65.90
2017-05-31T02:00:51.647Z,66.00
2017-05-31T02:03:19.974Z,65.00
2017-05-31T02:05:48.270Z,65.10
2017-05-31T02:08:16.577Z,65.40
2017-05-31T02:10:44.891Z,64.80
2017-05-31T02:13:13.194Z,65.40
2017-05-31T02:15:41.518Z,66.00
2017-05-31T02:18:09.818Z,66.80
2017-05-31T02:20:38.123Z,67.70
2017-05-31T02:23:06.452Z,68.60
2017-05-31T02:25:34.746Z,68.70
2017-05-31T02:28:03.072Z,69.60
2017-05-31T02:30:31.391Z,69.50
2017-05-31T02:32:59.687Z,70.30
2017-05-31T02:35:28.023Z,70.30
2017-05-31T02:37:56.324Z,70.30
2017-05-31T02:40:24.631Z,70.80
2017-05-31T02:42:52.950Z,70.30
2017-05-31T02:45:21.250Z,71.20
2017-05-31T02:47:49.553Z,70.70
2017-05-31T02:50:17.874Z,71.30
2017-05-31T02:52:46.170Z,71.60
2017-05-31T02:55:14.492Z,72.20
2017-05-31T02:57:42.809Z,71.20
2017-05-31T03:00:10.341Z,71.20
2017-05-31T03:02:38.678Z,73.60
2017-05-31T03:05:06.974Z,74.70
2017-05-31T03:07:35.277Z,74.70
2017-05-31T03:10:03.594Z,74.70
2017-05-31T03:12:31.898Z,74.70
2017-05-31T03:15:00.223Z,74.90
2017-05-31T03:17:28.533Z,76.00
2017-05-31T03:19:56.848Z,74.80
2017-05-31T03:22:25.170Z,75.40
2017-05-31T03:24:53.477Z,74.80
2017-05-31T03:27:21.063Z,74.90
2017-05-31T03:29:49.366Z,74.30
2017-05-31T03:32:17.666Z,73.50
2017-05-31T03:34:45.989Z,73.10
2017-05-31T03:37:14.289Z,73.00
2017-05-31T03:39:42.611Z,72.60
2017-05-31T03:42:10.920Z,72.70
2017-05-31T03:44:39.242Z,71.60
2017-05-31T03:47:07.541Z,71.00
2017-05-31T03:49:35.851Z,70.80
2017-05-31T03:52:04.179Z,69.80
2017-05-31T03:54:32.486Z,69.10
2017-05-31T03:57:00.819Z,69.10
2017-05-31T03:59:29.179Z,67.70
2017-05-31T04:01:57.476Z,68.60
2017-05-31T04:04:25.806Z,67.70
2017-05-31T04:06:54.118Z,68.20
2017-05-31T04:09:22.454Z,67.60
2017-05-31T04:11:50.766Z,67.50
2017-05-31T04:14:19.082Z,67.00
2017-05-31T04:16:47.402Z,66.80
2017-05-31T04:19:15.725Z,66.50
2017-05-31T04:21:44.061Z,65.00
2017-05-31T04:24:12.367Z,64.80
2017-05-31T04:26:40.693Z,60.30
2017-05-31T04:29:09.014Z,54.10
2017-05-31T04:31:37.322Z,48.30
2017-05-31T04:34:05.654Z,41.70
2017-05-31T04:36:33.957Z,36.30
2017-05-31T04:39:02.275Z,33.00
2017-05-31T04:41:30.609Z,31.50
2017-05-31T04:43:58.913Z,29.50
2017-05-31T04:46:27.254Z,28.50
2017-05-31T04:48:55.571Z,27.00
2017-05-31T04:51:23.870Z,27.00
2017-05-31T04:53:52.182Z,29.50
2017-05-31T04:56:20.483Z,35.80
2017-05-31T04:58:48.802Z,37.60
2017-05-31T05:01:17.103Z,39.30
2017-05-31T05:03:45.405Z,40.00
2017-05-31T05:06:13.739Z,41.70
2017-05-31T05:08:42.054Z,43.70
2017-05-31T05:11:10.377Z,44.90
2017-05-31T05:13:38.678Z,46.50
2017-05-31T05:16:06.995Z,46.00
2017-05-31T05:18:35.314Z,46.00
2017-05-31T05:21:03.623Z,46.40
2017-05-31T05:23:31.951Z,45.40
2017-05-31T05:26:00.262Z,44.80
2017-05-31T05:28:28.574Z,38.90
2017-05-31T05:30:56.904Z,31.00
2017-05-31T05:33:26.367Z,26.20
2017-05-31T05:35:54.703Z,25.40
2017-05-31T05:38:23.005Z,26.00
2017-05-31T05:40:51.306Z,28.50
2017-05-31T05:43:19.628Z,33.30
2017-05-31T05:45:47.930Z,37.50
2017-05-31T05:48:16.286Z,38.30
2017-05-31T05:50:44.590Z,35.00
2017-05-31T05:53:12.895Z,32.00
2017-05-31T05:55:41.215Z,29.60
2017-05-31T05:58:09.604Z,26.00
2017-05-31T06:00:37.935Z,23.00
2017-05-31T06:03:06.226Z,20.20
2017-05-31T06:05:34.523Z,20.30
2017-05-31T06:08:02.839Z,19.90
2017-05-31T06:10:31.182Z,19.80
2017-05-31T06:12:59.505Z,19.20
2017-05-31T06:15:27.816Z,19.60
2017-05-31T06:17:56.118Z,19.20
2017-05-31T06:20:24.432Z,18.30
2017-05-31T06:22:52.727Z,18.30
2017-05-31T06:25:21.081Z,18.80
2017-05-31T06:27:49.374Z,20.50
2017-05-31T06:30:17.683Z,20.50
2017-05-31T06:32:46.010Z,20.30
2017-05-31T06:35:14.314Z,20.40
2017-05-31T06:37:42.634Z,20.90
2017-05-31T06:40:10.938Z,21.30
2017-05-31T06:42:39.253Z,22.30
2017-05-31T06:45:07.545Z,24.00
2017-05-31T06:47:35.839Z,25.20
2017-05-31T06:50:04.161Z,26.20
2017-05-31T06:52:32.503Z,27.50
2017-05-31T06:55:00.816Z,28.60
2017-05-31T06:57:29.111Z,30.20
2017-05-31T06:59:57.406Z,31.40
2017-05-31T07:05:04.810Z,33.70
2017-05-31T07:07:33.106Z,35.80
2017-05-31T07:10:01.419Z,36.90
2017-05-31T07:12:29.739Z,39.00
2017-05-31T07:20:13.700Z,34.80
2017-05-31T07:25:20.012Z,35.70
2017-05-31T07:27:48.343Z,37.00
2017-05-31T07:30:18.862Z,36.90
2017-05-31T07:32:47.169Z,37.20
2017-05-31T07:35:15.481Z,36.70
2017-05-31T07:37:43.831Z,36.90
2017-05-31T07:40:12.148Z,37.20
2017-05-31T07:42:40.443Z,37.50
2017-05-31T07:45:08.743Z,37.40
2017-05-31T07:47:37.069Z,36.90
2017-05-31T07:50:05.382Z,37.30
2017-05-31T07:52:33.679Z,37.40
2017-05-31T07:55:01.987Z,36.00
2017-05-31T07:57:30.363Z,35.80
2017-05-31T07:59:58.670Z,35.60
2017-05-31T08:02:26.971Z,38.10
2017-05-31T08:04:55.295Z,39.30
2017-05-31T08:07:25.050Z,41.20
2017-05-31T08:09:53.374Z,42.50
2017-05-31T08:12:21.717Z,40.50
2017-05-31T08:14:50.017Z,38.40
2017-05-31T08:17:18.302Z,37.30
2017-05-31T08:19:46.618Z,36.20
2017-05-31T08:22:14.919Z,34.50
2017-05-31T08:24:43.258Z,35.60
2017-05-31T08:27:11.550Z,34.50
2017-05-31T08:29:39.842Z,34.80
2017-05-31T08:32:08.158Z,34.90
2017-05-31T08:34:36.444Z,35.50
2017-05-31T08:37:04.770Z,35.50
2017-05-31T08:39:33.071Z,35.10
2017-05-31T08:42:01.366Z,34.30
2017-05-31T08:44:29.679Z,34.90
2017-05-31T08:46:57.973Z,31.40
2017-05-31T08:49:25.936Z,31.40
2017-05-31T08:51:54.250Z,28.60
2017-05-31T08:54:22.538Z,28.40
2017-05-31T08:56:50.852Z,29.00
2017-05-31T08:59:19.151Z,31.20
2017-05-31T09:01:47.482Z,33.30
2017-05-31T09:04:15.781Z,32.00
2017-05-31T09:06:44.078Z,33.10
2017-05-31T09:09:12.397Z,32.40
2017-05-31T09:11:40.698Z,31.90
2017-05-31T09:14:09.020Z,31.60
2017-05-31T09:16:37.314Z,31.00
2017-05-31T09:19:05.610Z,30.40
2017-05-31T09:21:33.928Z,30.70
2017-05-31T09:24:02.228Z,31.70
2017-05-31T09:26:30.536Z,32.40
2017-05-31T09:28:59.119Z,31.40
2017-05-31T09:31:27.416Z,31.10
2017-05-31T09:33:55.726Z,30.20
2017-05-31T09:36:24.023Z,29.00
2017-05-31T09:38:52.353Z,28.30
2017-05-31T09:41:20.667Z,28.00
2017-05-31T09:43:48.958Z,27.90
2017-05-31T09:46:17.285Z,27.90
2017-05-31T09:48:45.589Z,27.80
2017-05-31T09:51:13.903Z,27.50
2017-05-31T09:53:42.198Z,28.50
2017-05-31T09:56:10.947Z,27.40
2017-05-31T09:58:39.278Z,27.50
2017-05-31T10:01:07.586Z,27.50
2017-05-31T10:03:35.917Z,27.00
2017-05-31T10:06:04.230Z,27.00
2017-05-31T10:08:32.532Z,27.40
2017-05-31T10:11:00.853Z,28.00
2017-05-31T10:13:29.146Z,28.00
2017-05-31T10:15:57.462Z,27.80
2017-05-31T10:18:25.751Z,27.50
2017-05-31T10:20:53.281Z,27.60
2017-05-31T10:23:21.585Z,27.60
2017-05-31T10:28:27.826Z,25.90
2017-05-31T10:30:56.130Z,24.50
2017-05-31T10:33:24.427Z,25.30
2017-05-31T10:35:52.752Z,24.00
2017-05-31T10:38:21.075Z,24.10
2017-05-31T10:40:49.377Z,24.20
2017-05-31T10:43:17.667Z,25.20
2017-05-31T10:45:45.975Z,25.10
2017-05-31T10:48:17.482Z,24.00
2017-05-31T10:50:45.795Z,24.50
2017-05-31T10:53:14.110Z,24.40
2017-05-31T10:55:42.448Z,24.60
2017-05-31T10:58:10.770Z,25.30
2017-05-31T11:00:39.065Z,24.10
2017-05-31T11:03:07.357Z,24.70
2017-05-31T11:05:35.671Z,24.90
2017-05-31T11:08:03.969Z,25.60
2017-05-31T11:10:32.283Z,26.30
2017-05-31T11:13:00.578Z,26.80
2017-05-31T11:15:28.874Z,26.00
2017-05-31T11:17:57.182Z,26.40
2017-05-31T11:20:25.475Z,26.90
2017-05-31T11:22:53.812Z,26.20
2017-05-31T11:25:22.151Z,27.10
2017-05-31T11:27:50.470Z,25.40
2017-05-31T11:30:18.792Z,25.90
2017-05-31T11:32:47.098Z,26.40
2017-05-31T11:35:15.423Z,25.40
2017-05-31T11:37:43.748Z,25.50
2017-05-31T11:40:12.042Z,26.40
2017-05-31T11:42:40.378Z,24.00
2017-05-31T11:45:08.676Z,24.40
2017-05-31T11:47:36.998Z,25.90
2017-05-31T11:50:05.302Z,26.80
2017-05-31T11:55:08.330Z,28.40
2017-05-31T11:57:36.630Z,27.70
2017-05-31T12:00:04.947Z,28.60
2017-05-31T12:02:33.252Z,26.90
2017-05-31T12:05:01.590Z,27.30
2017-05-31T12:07:29.984Z,26.60
2017-05-31T12:09:58.281Z,26.80
2017-05-31T12:12:26.593Z,26.80
2017-05-31T12:14:54.886Z,26.00
2017-05-31T12:17:23.184Z,26.20
2017-05-31T12:19:51.516Z,25.30
2017-05-31T12:22:19.874Z,26.70
2017-05-31T12:24:48.187Z,27.40
2017-05-31T12:27:16.487Z,27.00
2017-05-31T12:29:44.792Z,27.30
2017-05-31T12:32:13.106Z,27.00
2017-05-31T12:34:41.396Z,27.90
2017-05-31T12:37:09.714Z,27.20
2017-05-31T12:39:38.006Z,25.80
2017-05-31T12:42:06.298Z,24.60
2017-05-31T12:44:34.617Z,24.60
2017-05-31T12:47:02.930Z,24.70
2017-05-31T12:49:31.252Z,24.30
2017-05-31T12:51:59.566Z,23.80
2017-05-31T12:54:27.866Z,23.40
2017-05-31T12:56:56.179Z,22.90
2017-05-31T12:59:24.465Z,24.00
2017-05-31T13:01:52.813Z,23.40
2017-05-31T13:04:21.099Z,23.60
2017-05-31T13:06:49.394Z,23.20
2017-05-31T13:09:17.710Z,23.60
2017-05-31T13:11:46.006Z,23.30
2017-05-31T13:14:14.683Z,24.00
2017-05-31T13:16:42.978Z,23.60
2017-05-31T13:19:11.263Z,22.70
2017-05-31T13:21:39.583Z,22.40
2017-05-31T13:24:07.911Z,22.80
2017-05-31T13:26:36.260Z,23.00
2017-05-31T13:29:04.555Z,22.20
2017-05-31T13:31:32.847Z,22.80
2017-05-31T13:34:01.162Z,23.50
2017-05-31T13:36:29.471Z,24.40
2017-05-31T13:38:57.793Z,25.40
2017-05-31T13:41:26.098Z,25.80
2017-05-31T13:43:54.394Z,26.10
2017-05-31T13:46:22.703Z,25.60
2017-05-31T13:48:50.989Z,26.40
2017-05-31T13:51:19.310Z,26.80
2017-05-31T13:53:47.609Z,27.40
2017-05-31T13:56:15.917Z,27.50
2017-05-31T13:58:44.230Z,28.10
2017-05-31T14:01:12.522Z,26.50
2017-05-31T14:03:40.838Z,28.30
2017-05-31T14:06:09.142Z,28.60
2017-05-31T14:08:37.430Z,27.70
2017-05-31T14:11:05.751Z,27.70
2017-05-31T14:13:34.046Z,27.80
2017-05-31T14:16:02.336Z,27.00
2017-05-31T14:18:30.653Z,27.30
2017-05-31T14:20:58.951Z,27.30
2017-05-31T14:23:27.280Z,26.60
2017-05-31T14:25:55.574Z,26.60
2017-05-31T14:28:23.859Z,25.70
2017-05-31T14:30:52.162Z,25.50
2017-05-31T14:33:20.449Z,26.60
2017-05-31T14:35:48.761Z,25.20
2017-05-31T14:38:17.062Z,26.30
2017-05-31T14:40:45.350Z,25.80
2017-05-31T14:43:13.666Z,25.60
2017-05-31T14:45:41.963Z,25.10
2017-05-31T14:48:10.299Z,25.00
2017-05-31T14:50:38.593Z,25.10
2017-05-31T14:53:06.892Z,24.70
2017-05-31T14:55:35.193Z,24.80
2017-05-31T14:58:03.482Z,25.00
2017-05-31T15:00:31.806Z,25.00
2017-05-31T15:03:00.102Z,26.50
2017-05-31T15:05:28.399Z,26.50
2017-05-31T15:07:56.709Z,26.80
2017-05-31T15:10:25.001Z,27.50
2017-05-31T15:12:53.314Z,26.40
2017-05-31T15:15:21.608Z,26.30
2017-05-31T15:17:49.905Z,26.40
2017-05-31T15:20:18.217Z,26.50
2017-05-31T15:22:46.510Z,28.00
2017-05-31T15:25:14.817Z,28.00
2017-05-31T15:27:43.101Z,28.70
2017-05-31T15:30:11.391Z,28.60
2017-05-31T15:32:39.703Z,29.20
2017-05-31T15:35:07.990Z,28.30
2017-05-31T15:37:36.315Z,28.70
2017-05-31T15:40:04.607Z,28.10
2017-05-31T15:42:32.903Z,27.70
2017-05-31T15:45:01.212Z,28.60
2017-05-31T15:47:29.609Z,28.10
2017-05-31T15:49:57.946Z,28.70
2017-05-31T15:52:26.243Z,27.20
2017-05-31T15:54:54.540Z,28.60
2017-05-31T15:57:22.098Z,28.60
2017-05-31T15:59:50.386Z,28.10
2017-05-31T16:02:18.736Z,27.70
2017-05-31T16:04:47.036Z,27.30
2017-05-31T16:07:15.330Z,27.10
2017-05-31T16:09:43.638Z,26.50
2017-05-31T16:12:11.929Z,27.10
2017-05-31T16:14:40.246Z,27.10
2017-05-31T16:17:08.540Z,26.20
2017-05-31T16:19:36.834Z,26.90
2017-05-31T16:22:05.143Z,26.60
2017-05-31T16:24:33.441Z,26.40
2017-05-31T16:27:01.796Z,27.20
2017-05-31T16:29:30.086Z,27.20
2017-05-31T16:31:58.382Z,28.40
2017-05-31T16:34:26.702Z,27.60
2017-05-31T16:36:55.002Z,27.20
2017-05-31T16:39:23.317Z,27.00
2017-05-31T16:41:51.610Z,26.60
2017-05-31T16:44:19.914Z,27.10
2017-05-31T16:46:48.234Z,27.00
2017-05-31T16:49:16.523Z,27.60
2017-05-31T16:51:44.831Z,28.00
2017-05-31T16:54:13.129Z,28.10
2017-05-31T16:56:41.851Z,29.10
2017-05-31T16:59:10.187Z,28.30
2017-05-31T17:01:38.477Z,28.00
2017-05-31T17:04:06.789Z,29.10
2017-05-31T17:06:35.086Z,28.90
2017-05-31T17:09:03.382Z,29.20
2017-05-31T17:11:31.694Z,29.50
2017-05-31T17:13:59.988Z,29.90
2017-05-31T17:16:28.316Z,30.00
2017-05-31T17:18:56.610Z,29.10
2017-05-31T17:21:24.911Z,30.00
2017-05-31T17:23:53.226Z,30.30
2017-05-31T17:26:21.546Z,30.10
2017-05-31T17:28:49.872Z,29.30
2017-05-31T17:31:18.174Z,29.50
2017-05-31T17:33:46.480Z,29.90
2017-05-31T17:36:14.831Z,29.10
2017-05-31T17:38:43.164Z,29.60
2017-05-31T17:41:11.478Z,29.80
2017-05-31T17:43:39.770Z,30.10
2017-05-31T17:46:08.090Z,30.00
2017-05-31T17:48:36.387Z,29.90
2017-05-31T17:51:04.688Z,29.90
2017-05-31T17:53:33.020Z,30.50
2017-05-31T17:56:01.315Z,29.90
2017-05-31T17:58:29.656Z,30.30
2017-05-31T18:00:58.005Z,30.00
2017-05-31T18:03:26.306Z,30.30
2017-05-31T18:05:54.621Z,30.90
2017-05-31T18:08:22.922Z,31.00
2017-05-31T18:10:51.242Z,31.30
2017-05-31T18:13:19.542Z,31.30
2017-05-31T18:15:47.839Z,31.70
2017-05-31T18:18:16.146Z,31.20
2017-05-31T18:20:44.441Z,32.10
2017-05-31T18:23:12.763Z,32.10
2017-05-31T18:25:41.073Z,32.80
2017-05-31T18:30:47.235Z,33.50
2017-05-31T18:33:15.541Z,33.80
2017-05-31T18:35:43.853Z,34.20
2017-05-31T18:38:12.155Z,34.60
2017-05-31T18:40:40.454Z,34.80
2017-05-31T18:43:08.766Z,35.30
2017-05-31T18:45:37.064Z,35.30
2017-05-31T18:48:05.386Z,35.60
2017-05-31T18:50:33.686Z,35.80
2017-05-31T18:53:02.021Z,36.00
2017-05-31T18:55:30.334Z,36.90
2017-05-31T18:57:58.634Z,37.00
2017-05-31T19:00:26.954Z,37.40
2017-05-31T19:02:55.250Z,37.30
2017-05-31T19:05:23.542Z,37.60
2017-05-31T19:07:51.853Z,39.20
2017-05-31T19:10:20.146Z,38.50
2017-05-31T19:12:48.470Z,38.60
2017-05-31T19:15:16.758Z,38.80
2017-05-31T19:17:45.057Z,39.20
2017-05-31T19:20:13.371Z,39.20
2017-05-31T19:22:41.661Z,39.70
2017-05-31T19:25:09.978Z,39.50
2017-05-31T19:27:38.282Z,39.80
2017-05-31T19:30:06.581Z,39.80
2017-05-31T19:32:34.894Z,40.30
2017-05-31T19:35:03.191Z,40.10
2017-05-31T19:37:31.517Z,40.60
2017-05-31T19:39:59.814Z,41.80
2017-05-31T19:42:28.107Z,41.30
2017-05-31T19:44:56.417Z,41.20
2017-05-31T19:47:24.710Z,41.90
2017-05-31T19:49:53.018Z,41.60
2017-05-31T19:52:20.546Z,41.50
2017-05-31T19:54:48.861Z,42.40
2017-05-31T19:57:17.150Z,42.30
2017-05-31T19:59:45.454Z,42.80
2017-05-31T20:02:13.765Z,43.00
2017-05-31T20:04:42.062Z,42.90
2017-05-31T20:07:10.386Z,43.20
2017-05-31T20:09:38.690Z,43.20
2017-05-31T20:12:07.037Z,43.20
2017-05-31T20:14:35.346Z,43.60
2017-05-31T20:17:03.652Z,44.10
2017-05-31T20:19:31.978Z,44.20
2017-05-31T20:22:00.286Z,44.80
2017-05-31T20:24:28.586Z,44.80
2017-05-31T20:26:56.895Z,44.70
2017-05-31T20:29:25.202Z,44.60
2017-05-31T20:31:53.520Z,44.80
2017-05-31T20:34:21.821Z,45.30
2017-05-31T20:36:50.110Z,45.50
2017-05-31T20:39:18.439Z,46.10
2017-05-31T20:41:46.731Z,46.10
2017-05-31T20:44:15.062Z,46.20
2017-05-31T20:46:43.378Z,46.50
2017-05-31T20:49:11.679Z,46.90
2017-05-31T20:51:39.998Z,47.20
2017-05-31T20:54:08.316Z,47.20
2017-05-31T20:56:36.616Z,47.10
2017-05-31T20:59:04.939Z,47.60
2017-05-31T21:01:33.246Z,47.50
2017-05-31T21:04:01.559Z,48.10
2017-05-31T21:06:29.960Z,48.20
2017-05-31T21:08:58.270Z,49.10
2017-05-31T21:11:26.602Z,48.60
2017-05-31T21:13:54.915Z,49.00
2017-05-31T21:16:23.223Z,49.20
2017-05-31T21:18:51.532Z,49.70
2017-05-31T21:21:19.843Z,50.30
2017-05-31T21:23:48.174Z,51.10
2017-05-31T21:26:16.482Z,51.00
2017-05-31T21:28:44.795Z,51.50
2017-05-31T21:31:13.124Z,51.90
2017-05-31T21:33:41.427Z,52.40
2017-05-31T21:36:09.749Z,52.70
2017-05-31T21:38:38.046Z,52.70
2017-05-31T21:41:06.357Z,51.70
2017-05-31T21:43:34.694Z,53.00
2017-05-31T21:46:02.998Z,52.60
2017-05-31T21:48:31.323Z,52.90
2017-05-31T21:50:59.621Z,53.20
2017-05-31T21:53:27.921Z,53.50
2017-05-31T21:55:56.231Z,53.50
2017-05-31T21:58:24.546Z,53.50
2017-05-31T22:00:52.983Z,53.30
2017-05-31T22:03:21.295Z,53.80
2017-05-31T22:05:49.608Z,53.90
2017-05-31T22:08:17.941Z,53.10
2017-05-31T22:10:46.258Z,53.40
2017-05-31T22:13:14.578Z,53.00
2017-05-31T22:15:42.895Z,52.60
2017-05-31T22:18:11.225Z,52.60
2017-05-31T22:20:39.592Z,52.40
2017-05-31T22:23:07.941Z,52.30
2017-05-31T22:25:36.305Z,52.50
2017-05-31T22:28:04.619Z,52.60
2017-05-31T22:30:33.079Z,53.10
2017-05-31T22:33:01.432Z,53.80
2017-05-31T22:35:29.774Z,53.40
2017-05-31T22:37:58.122Z,53.50
2017-05-31T22:40:26.421Z,53.50
2017-05-31T22:42:54.722Z,53.70
2017-05-31T22:45:23.052Z,53.60
2017-05-31T22:47:51.373Z,54.20
2017-05-31T22:50:19.722Z,53.90
2017-05-31T22:52:48.031Z,53.90
2017-05-31T22:55:16.355Z,54.20
2017-05-31T22:57:44.680Z,54.10
2017-05-31T23:00:12.974Z,54.60
2017-05-31T23:02:41.351Z,54.50
2017-05-31T23:05:09.664Z,54.50
2017-05-31T23:07:38.018Z,55.20
2017-05-31T23:10:06.327Z,55.00
2017-05-31T23:12:34.624Z,55.10
2017-05-31T23:15:02.950Z,55.40
2017-05-31T23:17:31.245Z,55.60
2017-05-31T23:19:59.559Z,55.40
2017-05-31T23:22:27.872Z,55.30
2017-05-31T23:24:56.201Z,55.80
2017-05-31T23:27:24.519Z,55.20
2017-05-31T23:29:52.830Z,56.00
2017-05-31T23:32:21.118Z,56.20
2017-05-31T23:34:49.434Z,56.40
2017-05-31T23:37:17.735Z,56.90
2017-05-31T23:39:46.083Z,57.40
2017-05-31T23:42:14.392Z,57.40
2017-05-31T23:44:42.690Z,57.50
2017-05-31T23:47:10.997Z,57.80
2017-05-31T23:49:39.290Z,58.30
2017-05-31T23:52:07.607Z,58.90
2017-05-31T23:54:35.894Z,59.50
2017-05-31T23:57:04.185Z,59.30
2017-05-31T23:59:32.498Z,59.00
